Time;durP1;ratioP1;P1;durP2;ratioP2;P2;SDS_P1;SDS_P2;PMS_P1;PMS_P2;Temp;Humidity;BMP_temperature;BMP_pressure;BME280_temperature;BME280_humidity;BME280_pressure;Samples;Min_cycle;Max_cycle;Signal;HPM_P1;HPM_P2
2022/04/12 00:01:06;;;;;;;10.80;7.73;;;;;;;-1.15;100.00;101080.56;4964117;28;20203;-72
2022/04/12 00:03:32;;;;;;;11.63;7.23;;;;;;;-1.08;100.00;101080.75;4971093;28;20333;-72
2022/04/12 00:05:59;;;;;;;8.77;7.03;;;;;;;-1.05;100.00;101081.69;4978666;28;20682;-72
2022/04/12 00:08:27;;;;;;;9.43;6.93;;;;;;;-0.97;100.00;101075.13;4975572;28;20228;-72
2022/04/12 00:10:53;;;;;;;10.70;7.53;;;;;;;-1.02;100.00;101080.91;4970025;28;20202;-72
2022/04/12 00:13:20;;;;;;;11.60;7.80;;;;;;;-0.99;100.00;101078.44;4972279;28;20205;-71
2022/04/12 00:15:48;;;;;;;11.63;9.30;;;;;;;-1.00;100.00;101079.28;4964822;28;20236;-71
2022/04/12 00:21:13;;;;;;;12.43;8.67;;;;;;;-1.05;100.00;101075.72;4918644;29;20243;-72
2022/04/12 00:23:40;;;;;;;13.30;8.50;;;;;;;-1.18;100.00;101074.47;4909491;29;20287;-71
2022/04/12 00:26:07;;;;;;;13.43;8.90;;;;;;;-1.18;100.00;101071.91;4937120;28;20494;-72
2022/04/12 00:28:33;;;;;;;12.03;8.57;;;;;;;-1.09;100.00;101063.63;4975772;28;20562;-71
2022/04/12 00:31:00;;;;;;;14.13;9.13;;;;;;;-1.07;100.00;101069.66;4954963;28;20457;-72
2022/04/12 00:33:28;;;;;;;11.57;8.43;;;;;;;-1.06;100.00;101071.41;4965124;28;20201;-72
2022/04/12 00:36:00;;;;;;;11.27;8.90;;;;;;;-1.19;100.00;101068.50;4978716;28;20493;-72
2022/04/12 00:38:27;;;;;;;17.13;9.33;;;;;;;-1.24;100.00;101071.75;4971775;28;20484;-72
2022/04/12 00:40:55;;;;;;;13.10;9.23;;;;;;;-1.23;100.00;101071.81;4971308;28;20206;-72
2022/04/12 00:43:27;;;;;;;12.00;8.63;;;;;;;-1.26;100.00;101070.84;4977285;28;20202;-71
2022/04/12 00:45:53;;;;;;;11.33;9.00;;;;;;;-1.29;100.00;101069.06;4975268;28;20220;-72
2022/04/12 00:48:20;;;;;;;15.70;9.00;;;;;;;-1.36;100.00;101067.16;4969521;28;20202;-72
2022/04/12 00:50:46;;;;;;;10.60;7.93;;;;;;;-1.34;100.00;101073.16;4974899;28;20236;-72
2022/04/12 00:53:13;;;;;;;10.47;8.17;;;;;;;-1.39;100.00;101072.16;4979421;28;20208;-72
2022/04/12 00:55:39;;;;;;;10.63;7.97;;;;;;;-1.35;100.00;101066.34;4976607;28;20726;-71
2022/04/12 00:58:08;;;;;;;11.80;8.40;;;;;;;-1.48;100.00;101072.75;4974361;28;21107;-72
2022/04/12 01:00:35;;;;;;;9.33;7.40;;;;;;;-1.42;100.00;101072.94;4971151;28;20622;-72
2022/04/12 01:03:02;;;;;;;10.57;8.27;;;;;;;-1.48;100.00;101080.41;4965932;28;20693;-72
2022/04/12 01:05:29;;;;;;;12.27;8.40;;;;;;;-1.52;100.00;101076.91;4976683;28;20547;-72
2022/04/12 01:07:56;;;;;;;10.77;8.10;;;;;;;-1.53;100.00;101070.06;4969296;28;20848;-72
2022/04/12 01:10:23;;;;;;;11.40;8.10;;;;;;;-1.54;100.00;101070.03;4963341;28;20845;-72
2022/04/12 01:12:51;;;;;;;9.67;8.23;;;;;;;-1.42;100.00;101067.84;4968514;28;20483;-72
2022/04/12 01:15:21;;;;;;;12.20;8.77;;;;;;;-1.54;100.00;101068.31;4975093;28;20512;-72
2022/04/12 01:17:48;;;;;;;13.63;8.97;;;;;;;-1.61;100.00;101061.28;4970029;28;20935;-72
2022/04/12 01:20:17;;;;;;;13.03;8.70;;;;;;;-1.57;100.00;101063.09;4962652;28;20468;-72
2022/04/12 01:22:51;;;;;;;9.67;7.93;;;;;;;-1.67;100.00;101062.78;4962011;28;20451;-72
2022/04/12 01:25:20;;;;;;;13.07;8.33;;;;;;;-1.79;100.00;101056.50;4971495;28;20502;-72
2022/04/12 01:27:47;;;;;;;10.27;8.00;;;;;;;-1.62;100.00;101054.47;4965793;28;20486;-71
2022/04/12 01:30:13;;;;;;;11.17;7.87;;;;;;;-1.69;100.00;101061.88;4978871;28;20463;-72
2022/04/12 01:32:40;;;;;;;11.10;8.10;;;;;;;-1.70;100.00;101058.47;4965858;28;20464;-72
2022/04/12 01:35:07;;;;;;;13.23;8.10;;;;;;;-1.58;100.00;101058.84;4966009;28;20486;-72
2022/04/12 01:37:33;;;;;;;11.87;9.33;;;;;;;-1.44;100.00;101058.38;4971623;28;20473;-72
2022/04/12 01:40:00;;;;;;;13.00;9.10;;;;;;;-1.56;100.00;101054.63;4971936;28;20466;-72
2022/04/12 01:42:28;;;;;;;14.83;9.83;;;;;;;-1.69;100.00;101056.75;4974697;28;20452;-72
2022/04/12 01:44:54;;;;;;;14.53;9.67;;;;;;;-1.59;100.00;101056.22;4967427;28;20496;-71
2022/04/12 01:47:20;;;;;;;14.30;9.60;;;;;;;-1.73;100.00;101061.78;4961981;28;20206;-72
2022/04/12 01:49:47;;;;;;;12.60;8.60;;;;;;;-1.83;100.00;101059.78;4969771;28;20208;-71
2022/04/12 01:52:15;;;;;;;10.70;9.03;;;;;;;-1.94;100.00;101063.66;4978943;28;20461;-72
2022/04/12 01:54:41;;;;;;;12.80;9.60;;;;;;;-1.78;100.00;101062.47;4967269;28;21055;-72
2022/04/12 01:57:07;;;;;;;12.10;9.70;;;;;;;-1.79;100.00;101063.31;4971392;28;20480;-72
2022/04/12 01:59:35;;;;;;;13.67;9.33;;;;;;;-1.70;100.00;101060.16;4972667;28;20467;-72
2022/04/12 02:02:01;;;;;;;12.90;8.87;;;;;;;-1.89;100.00;101056.16;4975575;28;20460;-72
2022/04/12 02:04:28;;;;;;;13.47;8.83;;;;;;;-1.92;100.00;101056.91;4976091;28;20475;-72
2022/04/12 02:06:54;;;;;;;11.20;8.93;;;;;;;-1.91;100.00;101056.97;4976931;28;20464;-71
2022/04/12 02:09:20;;;;;;;12.07;8.83;;;;;;;-1.81;100.00;101054.69;4966802;28;20868;-72
2022/04/12 02:11:47;;;;;;;12.97;8.50;;;;;;;-2.04;100.00;101057.41;4975486;28;20866;-72
2022/04/12 02:14:13;;;;;;;13.73;8.97;;;;;;;-2.14;100.00;101058.78;4970076;28;20456;-71
2022/04/12 02:16:41;;;;;;;10.53;8.90;;;;;;;-1.99;100.00;101060.09;4962906;28;20489;-72
2022/04/12 02:19:08;;;;;;;11.23;8.47;;;;;;;-1.99;100.00;101071.19;4972752;28;20455;-71
2022/04/12 02:21:34;;;;;;;13.47;9.70;;;;;;;-2.00;100.00;101068.59;4966444;28;20207;-72
2022/04/12 02:24:00;;;;;;;11.20;9.17;;;;;;;-1.87;100.00;101057.06;4973043;28;20818;-72
2022/04/12 02:26:26;;;;;;;13.17;10.03;;;;;;;-1.76;100.00;101059.16;4969826;28;20467;-70
2022/04/12 02:28:53;;;;;;;16.43;9.07;;;;;;;-1.84;100.00;101054.63;4974147;28;20461;-71
2022/04/12 02:31:19;;;;;;;14.43;9.57;;;;;;;-2.06;100.00;101064.13;4961345;28;20462;-71
2022/04/12 02:33:47;;;;;;;13.23;9.00;;;;;;;-2.33;100.00;101059.00;4971759;28;20474;-71
2022/04/12 02:36:13;;;;;;;12.07;8.50;;;;;;;-2.31;100.00;101055.66;4968741;28;20543;-72
2022/04/12 02:38:40;;;;;;;10.43;8.60;;;;;;;-2.15;100.00;101057.03;4969172;28;20467;-72
2022/04/12 02:41:06;;;;;;;13.10;9.87;;;;;;;-2.00;100.00;101061.78;4968747;28;20459;-72
2022/04/12 02:43:32;;;;;;;16.40;10.40;;;;;;;-2.07;100.00;101064.13;4958778;28;20496;-71
2022/04/12 02:45:58;;;;;;;16.63;10.53;;;;;;;-2.07;100.00;101062.41;4961593;28;20494;-72
2022/04/12 02:48:25;;;;;;;15.73;10.43;;;;;;;-2.05;100.00;101054.81;4965531;28;20981;-72
2022/04/12 02:50:53;;;;;;;15.63;11.80;;;;;;;-2.14;100.00;101053.69;4963389;28;20468;-72
2022/04/12 02:53:19;;;;;;;19.87;12.23;;;;;;;-2.27;100.00;101051.53;4959163;28;20458;-72
2022/04/12 02:55:45;;;;;;;23.73;15.70;;;;;;;-2.28;100.00;101048.13;4960860;28;20482;-71
2022/04/12 02:58:12;;;;;;;21.70;14.90;;;;;;;-2.06;100.00;101053.06;4964166;28;20452;-71
2022/04/12 03:00:38;;;;;;;17.50;11.07;;;;;;;-2.36;100.00;101046.97;4962105;28;20462;-71
2022/04/12 03:03:04;;;;;;;16.00;10.43;;;;;;;-2.44;100.00;101047.56;4965136;28;20464;-72
2022/04/12 03:05:30;;;;;;;22.80;14.40;;;;;;;-2.33;100.00;101046.22;4962683;28;20496;-71
2022/04/12 03:07:58;;;;;;;20.97;14.47;;;;;;;-2.22;100.00;101050.00;4963396;28;20465;-72
2022/04/12 03:10:24;;;;;;;20.77;13.57;;;;;;;-2.21;100.00;101051.75;4969481;28;20940;-71
2022/04/12 03:12:51;;;;;;;22.30;12.53;;;;;;;-2.37;100.00;101052.94;4973952;28;20474;-71
2022/04/12 03:15:17;;;;;;;18.50;12.20;;;;;;;-2.37;100.00;101054.63;4974263;28;20916;-72
2022/04/12 03:17:44;;;;;;;13.27;10.10;;;;;;;-2.21;100.00;101059.41;4970051;28;20486;-71
2022/04/12 03:20:10;;;;;;;12.70;10.23;;;;;;;-2.23;100.00;101057.59;4975072;28;20472;-72
2022/04/12 03:22:37;;;;;;;15.30;10.20;;;;;;;-2.19;100.00;101055.22;4968830;28;20459;-71
2022/04/12 03:25:09;;;;;;;13.00;8.90;;;;;;;-2.36;100.00;101046.13;4976829;28;20486;-71
2022/04/12 03:27:35;;;;;;;12.97;8.70;;;;;;;-2.67;100.00;101058.72;4975383;28;21122;-71
2022/04/12 03:30:02;;;;;;;12.47;8.57;;;;;;;-2.70;100.00;101057.75;4978692;28;20456;-72
2022/04/12 03:32:28;;;;;;;11.20;8.30;;;;;;;-2.41;100.00;101061.31;4966878;28;21019;-71
2022/04/12 03:34:55;;;;;;;12.87;8.90;;;;;;;-2.36;100.00;101058.91;4973317;28;20565;-72
2022/04/12 03:37:21;;;;;;;13.00;9.43;;;;;;;-2.47;100.00;101069.59;4974333;28;20481;-72
2022/04/12 03:39:48;;;;;;;12.13;9.03;;;;;;;-2.47;100.00;101067.06;4977256;28;20967;-72
2022/04/12 03:42:18;;;;;;;11.23;8.97;;;;;;;-2.35;100.00;101068.31;4977280;28;20494;-72
2022/04/12 03:44:45;;;;;;;10.83;8.63;;;;;;;-2.39;100.00;101066.44;4968262;28;20487;-72
2022/04/12 03:47:11;;;;;;;9.67;8.57;;;;;;;-2.48;100.00;101069.56;4960381;28;20837;-72
2022/04/12 03:49:38;;;;;;;11.53;7.37;;;;;;;-2.45;100.00;101074.78;4971563;28;20469;-71
2022/04/12 03:52:05;;;;;;;11.13;7.93;;;;;;;-2.39;100.00;101077.56;4972574;28;20457;-72
2022/04/12 03:54:31;;;;;;;12.93;8.87;;;;;;;-2.51;100.00;101077.13;4971824;28;20869;-72
2022/04/12 03:56:57;;;;;;;11.80;8.50;;;;;;;-2.34;100.00;101085.34;4966717;28;20842;-72
2022/04/12 03:59:25;;;;;;;12.07;8.43;;;;;;;-2.45;100.00;101077.31;4977344;28;20650;-72
2022/04/12 04:01:51;;;;;;;10.77;8.07;;;;;;;-2.46;100.00;101083.28;4971275;28;20515;-72
2022/04/12 04:04:18;;;;;;;10.23;8.17;;;;;;;-2.50;100.00;101083.97;4972977;28;20486;-72
2022/04/12 04:06:44;;;;;;;12.80;7.83;;;;;;;-2.60;100.00;101080.25;4974979;28;20519;-71
2022/04/12 04:09:11;;;;;;;12.53;8.17;;;;;;;-2.43;100.00;101092.72;4968470;28;20519;-72
2022/04/12 04:11:39;;;;;;;13.27;7.97;;;;;;;-2.64;100.00;101086.03;4966407;28;20450;-72
2022/04/12 04:14:06;;;;;;;11.60;7.97;;;;;;;-2.68;100.00;101084.19;4973176;28;20455;-72
2022/04/12 04:16:34;;;;;;;14.27;8.93;;;;;;;-2.84;100.00;101079.38;5023280;23;20492;-64
2022/04/12 04:19:00;;;;;;;12.80;9.30;;;;;;;-2.91;100.00;101085.94;5016091;28;20796;-64
2022/04/12 04:21:27;;;;;;;15.47;9.03;;;;;;;-2.72;100.00;101082.38;5015623;28;22078;-64
2022/04/12 04:23:53;;;;;;;13.03;9.10;;;;;;;-2.58;100.00;101085.41;5014517;28;20474;-65
2022/04/12 04:26:19;;;;;;;10.67;8.77;;;;;;;-2.53;100.00;101088.97;5014357;28;20484;-65
2022/04/12 04:28:48;;;;;;;14.23;8.03;;;;;;;-2.80;100.00;101092.28;5015673;28;20473;-65
2022/04/12 04:31:15;;;;;;;14.00;8.20;;;;;;;-2.65;100.00;101089.41;5020931;28;20471;-64
2022/04/12 04:33:43;;;;;;;12.73;8.93;;;;;;;-2.31;100.00;101093.13;5019519;28;20473;-65
2022/04/12 04:36:09;;;;;;;12.73;9.00;;;;;;;-2.44;100.00;101093.53;5010764;28;20512;-64
2022/04/12 04:38:35;;;;;;;12.47;8.27;;;;;;;-2.62;100.00;101093.75;5014968;28;20942;-64
2022/04/12 04:41:02;;;;;;;13.93;8.77;;;;;;;-2.48;100.00;101097.66;5011120;28;20451;-65
2022/04/12 04:43:28;;;;;;;13.20;8.10;;;;;;;-2.76;100.00;101101.81;5016929;28;20467;-65
2022/04/12 04:45:55;;;;;;;12.80;9.10;;;;;;;-2.45;100.00;101099.44;5011130;28;21059;-65
2022/04/12 04:48:21;;;;;;;16.70;9.63;;;;;;;-2.38;100.00;101107.38;5014494;28;20483;-65
2022/04/12 04:50:49;;;;;;;13.40;9.43;;;;;;;-2.23;100.00;101104.47;5017289;28;20973;-66
2022/04/12 04:53:15;;;;;;;12.00;9.67;;;;;;;-2.23;100.00;101106.16;5014777;28;20986;-63
2022/04/12 04:55:42;;;;;;;12.37;8.97;;;;;;;-2.12;100.00;101103.13;5012160;28;20495;-63
2022/04/12 04:58:09;;;;;;;15.97;9.30;;;;;;;-2.05;100.00;101100.81;5016358;28;20571;-65
2022/04/12 05:00:35;;;;;;;13.37;9.07;;;;;;;-2.01;100.00;101103.50;5013642;28;20472;-65
2022/04/12 05:03:03;;;;;;;12.13;8.93;;;;;;;-2.11;100.00;101106.56;5015455;28;20466;-65
2022/04/12 05:05:30;;;;;;;16.17;10.57;;;;;;;-2.07;100.00;101102.44;5012164;28;20491;-65
2022/04/12 05:07:58;;;;;;;16.53;11.40;;;;;;;-2.20;100.00;101107.16;5014764;28;20460;-65
2022/04/12 05:10:28;;;;;;;27.93;16.63;;;;;;;-2.17;100.00;101099.56;5007518;28;20460;-65
2022/04/12 05:12:55;;;;;;;28.80;17.60;;;;;;;-1.99;100.00;101106.94;5014485;28;20998;-65
2022/04/12 05:15:21;;;;;;;24.27;16.23;;;;;;;-1.74;100.00;101111.19;5011677;28;20496;-64
2022/04/12 05:17:49;;;;;;;19.77;13.50;;;;;;;-1.45;100.00;101103.53;5013352;28;20481;-65
2022/04/12 05:20:15;;;;;;;18.33;13.40;;;;;;;-1.43;100.00;101101.03;5018062;28;20556;-64
2022/04/12 05:22:41;;;;;;;19.13;13.90;;;;;;;-1.21;100.00;101103.41;5010284;28;20496;-64
2022/04/12 05:25:10;;;;;;;23.00;15.13;;;;;;;-1.27;100.00;101108.34;5012375;28;20627;-65
2022/04/12 05:27:36;;;;;;;22.50;13.77;;;;;;;-1.17;100.00;101112.91;5014594;28;20466;-65
2022/04/12 05:30:06;;;;;;;17.83;12.83;;;;;;;-1.11;100.00;101117.34;5018739;28;20815;-65
2022/04/12 05:32:33;;;;;;;20.43;12.13;;;;;;;-1.12;100.00;101115.63;5013078;28;20210;-64
2022/04/12 05:34:59;;;;;;;18.20;11.57;;;;;;;-0.99;100.00;101115.13;5019892;28;20220;-65
2022/04/12 05:37:26;;;;;;;16.13;10.90;;;;;;;-0.81;100.00;101119.03;5015360;28;20210;-65
2022/04/12 05:39:52;;;;;;;15.90;11.03;;;;;;;-0.63;100.00;101124.69;5015066;28;20257;-65
2022/04/12 05:42:20;;;;;;;16.10;11.10;;;;;;;-0.47;100.00;101125.13;5019666;28;20758;-65
2022/04/12 05:44:47;;;;;;;18.77;9.47;;;;;;;-0.29;100.00;101130.72;5014857;28;20481;-64
2022/04/12 05:47:14;;;;;;;13.60;9.07;;;;;;;-0.14;100.00;101134.50;5014577;28;20688;-64
2022/04/12 05:49:40;;;;;;;15.53;8.97;;;;;;;-0.03;100.00;101141.66;5013173;28;20200;-65
2022/04/12 05:52:08;;;;;;;10.83;8.03;;;;;;;0.14;100.00;101152.34;5014197;28;20235;-65
2022/04/12 05:54:34;;;;;;;11.87;7.73;;;;;;;0.27;100.00;101152.66;5015081;28;20223;-64
2022/04/12 05:57:01;;;;;;;11.03;7.10;;;;;;;0.42;100.00;101155.56;5014881;28;20593;-65
2022/04/12 05:59:29;;;;;;;9.23;7.40;;;;;;;0.60;100.00;101144.88;5011262;28;20210;-65
2022/04/12 06:01:55;;;;;;;8.50;6.63;;;;;;;0.72;100.00;101154.53;5012330;28;20211;-65
2022/04/12 06:04:21;;;;;;;9.33;5.67;;;;;;;0.86;100.00;101157.41;5011680;28;20215;-65
2022/04/12 06:06:48;;;;;;;8.17;6.07;;;;;;;1.05;100.00;101156.13;5008545;28;20227;-65
2022/04/12 06:09:14;;;;;;;9.13;5.97;;;;;;;1.22;100.00;101162.47;5008066;28;20207;-65
2022/04/12 06:11:40;;;;;;;11.40;6.30;;;;;;;1.44;100.00;101157.75;5014828;28;20723;-65
2022/04/12 06:14:07;;;;;;;9.23;5.93;;;;;;;1.60;99.45;101153.78;5013519;28;20202;-65
2022/04/12 06:16:34;;;;;;;9.67;5.23;;;;;;;1.72;99.92;101153.16;5010750;28;20241;-65
2022/04/12 06:19:01;;;;;;;10.00;5.80;;;;;;;1.82;99.84;101162.78;5015883;28;20564;-64
2022/04/12 06:21:27;;;;;;;10.90;5.50;;;;;;;1.97;98.53;101164.75;5021960;28;20196;-65
2022/04/12 06:23:53;;;;;;;10.03;5.50;;;;;;;2.11;97.54;101165.00;5022086;28;20199;-65
2022/04/12 06:26:20;;;;;;;5.57;4.67;;;;;;;2.25;96.58;101160.94;5018276;28;20220;-65
2022/04/12 06:28:46;;;;;;;6.93;5.03;;;;;;;2.33;96.61;101167.09;5017448;28;20195;-65
2022/04/12 06:31:12;;;;;;;7.57;4.50;;;;;;;2.51;95.91;101165.66;5023872;28;20199;-64
2022/04/12 06:33:40;;;;;;;5.83;4.93;;;;;;;2.65;95.24;101169.28;5014935;28;20206;-65
2022/04/12 06:36:06;;;;;;;7.13;4.73;;;;;;;2.82;93.96;101169.56;5015265;28;20588;-65
2022/04/12 06:38:33;;;;;;;7.50;5.00;;;;;;;2.96;92.25;101175.75;5018069;28;20227;-65
2022/04/12 06:40:59;;;;;;;5.67;4.63;;;;;;;3.18;90.90;101173.47;5023340;28;20200;-66
2022/04/12 06:43:26;;;;;;;8.53;4.73;;;;;;;3.30;89.37;101175.34;5015490;28;20379;-65
2022/04/12 06:45:52;;;;;;;8.53;4.90;;;;;;;3.40;88.94;101187.50;5018226;28;20314;-64
2022/04/12 06:48:18;;;;;;;7.13;4.30;;;;;;;3.62;88.31;101190.31;5009045;28;20208;-65
2022/04/12 06:50:46;;;;;;;8.50;5.23;;;;;;;3.78;87.13;101194.81;5014839;28;20695;-65
2022/04/12 06:53:12;;;;;;;8.50;4.37;;;;;;;3.88;86.31;101198.34;5021301;28;20210;-65
2022/04/12 06:55:39;;;;;;;6.60;4.23;;;;;;;4.06;84.36;101206.28;5016541;28;20221;-66
2022/04/12 06:58:05;;;;;;;10.23;4.00;;;;;;;4.18;84.36;101210.69;5016600;28;20217;-65
2022/04/12 07:00:32;;;;;;;4.80;3.73;;;;;;;4.39;83.42;101207.44;5010976;28;20719;-65
2022/04/12 07:02:58;;;;;;;9.13;3.93;;;;;;;4.59;81.46;101214.50;5020855;28;20208;-65
2022/04/12 07:05:24;;;;;;;6.43;4.23;;;;;;;4.68;81.44;101210.28;5016462;28;20650;-65
2022/04/12 07:07:54;;;;;;;6.63;3.60;;;;;;;4.84;80.93;101212.97;5017776;28;20208;-64
2022/04/12 07:10:21;;;;;;;6.10;3.83;;;;;;;5.13;78.08;101215.72;5012701;28;20247;-65
2022/04/12 07:12:53;;;;;;;5.93;4.00;;;;;;;5.27;77.94;101215.78;5017955;28;20205;-65
2022/04/12 07:15:20;;;;;;;6.47;3.80;;;;;;;5.38;78.13;101208.97;5018331;28;20230;-65
2022/04/12 07:17:46;;;;;;;5.57;3.80;;;;;;;5.63;75.90;101217.69;5014932;28;20227;-64
2022/04/12 07:20:13;;;;;;;6.47;3.87;;;;;;;5.84;73.93;101224.66;5020891;28;20579;-66
2022/04/12 07:22:39;;;;;;;7.37;3.63;;;;;;;6.12;72.94;101223.88;5021656;28;20290;-65
2022/04/12 07:25:08;;;;;;;4.80;3.50;;;;;;;6.20;72.68;101223.03;5022958;28;20224;-65
2022/04/12 07:27:36;;;;;;;5.70;3.40;;;;;;;6.59;68.64;101223.91;5024491;28;20188;-65
2022/04/12 07:30:04;;;;;;;4.63;3.47;;;;;;;6.70;69.97;101223.06;5016117;28;20580;-65
2022/04/12 07:32:31;;;;;;;5.43;3.50;;;;;;;6.74;71.27;101217.88;5016341;28;20275;-65
2022/04/12 07:34:57;;;;;;;4.40;3.17;;;;;;;6.98;68.05;101217.00;5021326;28;20226;-66
2022/04/12 07:37:23;;;;;;;4.63;3.47;;;;;;;7.12;67.58;101218.66;5013542;28;20195;-65
2022/04/12 07:39:50;;;;;;;5.33;3.70;;;;;;;7.16;66.20;101225.59;5018033;28;20953;-65
2022/04/12 07:42:17;;;;;;;6.73;3.70;;;;;;;7.28;64.39;101227.28;5014477;28;20211;-65
2022/04/12 07:44:44;;;;;;;6.03;3.77;;;;;;;7.45;63.30;101227.22;5012869;28;20557;-65
2022/04/12 07:47:10;;;;;;;4.93;3.73;;;;;;;7.55;62.37;101224.59;5018923;28;20207;-64
2022/04/12 07:49:36;;;;;;;7.17;3.70;;;;;;;7.72;62.54;101229.72;5016308;28;20194;-66
2022/04/12 07:52:03;;;;;;;8.10;3.83;;;;;;;7.67;62.44;101226.28;5015095;28;20207;-65
2022/04/12 07:54:29;;;;;;;8.20;4.30;;;;;;;7.80;62.43;101228.81;5011149;28;20219;-65
2022/04/12 07:56:55;;;;;;;7.07;4.00;;;;;;;7.93;61.74;101227.88;5016982;28;20200;-66
2022/04/12 07:59:23;;;;;;;6.00;4.27;;;;;;;8.24;58.94;101238.06;5015397;28;20231;-66
2022/04/12 08:01:49;;;;;;;5.47;3.60;;;;;;;8.40;58.61;101237.09;5019058;28;20209;-65
2022/04/12 08:04:16;;;;;;;4.90;3.60;;;;;;;8.52;57.70;101239.63;5019794;28;20354;-65
2022/04/12 08:06:42;;;;;;;5.73;3.37;;;;;;;8.65;55.76;101236.94;5022369;28;20775;-66
2022/04/12 08:09:09;;;;;;;5.27;3.60;;;;;;;8.85;53.71;101240.22;5025005;28;20196;-66
2022/04/12 08:11:36;;;;;;;5.03;3.37;;;;;;;8.93;51.97;101241.88;5022382;28;20212;-66
2022/04/12 08:14:03;;;;;;;6.27;3.60;;;;;;;9.07;52.54;101235.66;5024101;28;20201;-65
2022/04/12 08:16:30;;;;;;;4.47;3.47;;;;;;;9.21;52.80;101235.53;5017678;28;20245;-65
2022/04/12 08:18:57;;;;;;;4.90;3.57;;;;;;;9.29;52.86;101231.09;5020188;28;20805;-65
2022/04/12 08:21:34;;;;;;;6.43;3.40;;;;;;;9.45;51.50;101238.75;5015808;28;20205;-65
2022/04/12 08:24:00;;;;;;;5.17;3.17;;;;;;;9.55;51.79;101236.88;5011553;28;20206;-65
2022/04/12 08:26:27;;;;;;;8.33;3.30;;;;;;;9.56;49.18;101236.88;5014378;28;20569;-65
2022/04/12 08:28:53;;;;;;;8.60;3.90;;;;;;;9.64;50.03;101229.81;5017230;28;20790;-65
2022/04/12 08:31:19;;;;;;;4.27;2.97;;;;;;;9.75;50.63;101226.22;5015887;28;20207;-65
2022/04/12 08:33:48;;;;;;;6.97;3.43;;;;;;;9.77;50.00;101224.47;5024102;28;20218;-65
2022/04/12 08:36:16;;;;;;;5.67;3.80;;;;;;;9.89;50.13;101226.06;5013281;28;20222;-64
2022/04/12 08:38:43;;;;;;;7.13;3.77;;;;;;;10.08;48.55;101230.13;5015182;28;20216;-65
2022/04/12 08:41:11;;;;;;;7.43;3.60;;;;;;;10.14;49.65;101231.75;5015029;28;20207;-65
2022/04/12 08:43:40;;;;;;;6.53;3.40;;;;;;;10.21;49.55;101228.19;5012988;28;20625;-66
2022/04/12 08:46:06;;;;;;;5.63;3.33;;;;;;;10.30;48.35;101224.56;5014977;28;20234;-64
2022/04/12 08:48:34;;;;;;;5.10;3.23;;;;;;;10.46;48.65;101222.63;5014103;28;20211;-65
2022/04/12 08:51:02;;;;;;;4.73;3.40;;;;;;;10.59;48.56;101227.63;5011749;28;20204;-64
2022/04/12 08:53:29;;;;;;;4.43;3.10;;;;;;;10.64;46.64;101229.28;5012058;28;20200;-65
2022/04/12 08:55:56;;;;;;;5.03;3.30;;;;;;;10.71;46.88;101225.66;5011393;28;20226;-65
2022/04/12 08:58:23;;;;;;;6.20;3.83;;;;;;;10.74;47.46;101230.84;5017576;28;20221;-65
2022/04/12 09:00:50;;;;;;;6.90;3.60;;;;;;;10.88;46.56;101235.81;5013797;28;20214;-65
2022/04/12 09:03:17;;;;;;;4.60;3.30;;;;;;;10.94;47.83;101233.09;5016457;28;20236;-66
2022/04/12 09:05:43;;;;;;;5.17;3.60;;;;;;;11.04;46.63;101233.78;5017302;28;20227;-66
2022/04/12 09:08:25;;;;;;;5.23;3.33;;;;;;;11.08;47.03;101225.91;5013097;28;20200;-66
2022/04/12 09:10:58;;;;;;;4.00;3.17;;;;;;;11.09;47.18;101222.38;5015587;28;20323;-65
2022/04/12 09:13:24;;;;;;;4.53;3.10;;;;;;;11.09;46.23;101219.78;5021200;28;20282;-65
2022/04/12 09:15:50;;;;;;;5.97;3.00;;;;;;;11.15;46.94;101222.28;5013032;28;20704;-65
2022/04/12 09:18:32;;;;;;;6.40;3.37;;;;;;;11.27;46.48;101222.91;5015406;28;20752;-65
2022/04/12 09:21:10;;;;;;;5.90;2.90;;;;;;;11.34;47.18;101221.91;5017667;28;20206;-65
2022/04/12 09:23:38;;;;;;;4.03;3.10;;;;;;;11.40;46.21;101218.31;5021189;28;20330;-64
2022/04/12 09:26:04;;;;;;;5.73;3.40;;;;;;;11.33;44.84;101228.88;5017838;28;20230;-65
2022/04/12 09:28:39;;;;;;;4.67;2.63;;;;;;;11.44;46.87;101225.22;5015237;28;20218;-65
2022/04/12 09:31:14;;;;;;;4.03;2.80;;;;;;;11.63;46.07;101221.31;5016206;28;20209;-65
2022/04/12 09:33:41;;;;;;;3.87;2.67;;;;;;;11.72;45.63;101215.91;5018602;28;20288;-65
2022/04/12 09:36:08;;;;;;;4.87;3.13;;;;;;;11.70;45.04;101216.84;5012991;28;20254;-64
2022/04/12 09:38:36;;;;;;;4.53;3.33;;;;;;;11.86;43.19;101219.97;5009950;28;20212;-65
2022/04/12 09:41:22;;;;;;;4.50;3.07;;;;;;;12.01;45.19;101217.03;5014641;28;20205;-66
2022/04/12 09:43:56;;;;;;;4.13;2.97;;;;;;;12.08;44.47;101210.78;5016963;28;20628;-65
2022/04/12 09:46:23;;;;;;;3.70;2.63;;;;;;;12.08;44.30;101217.75;5011841;28;20223;-66
2022/04/12 09:48:52;;;;;;;8.07;3.30;;;;;;;12.30;44.21;101211.13;5014470;28;20206;-66
2022/04/12 09:51:21;;;;;;;5.00;3.13;;;;;;;12.35;44.46;101207.53;5016175;28;20207;-66
2022/04/12 09:53:47;;;;;;;4.83;3.03;;;;;;;12.28;44.77;101204.22;5013645;28;20222;-66
2022/04/12 09:56:16;;;;;;;4.10;2.60;;;;;;;12.35;41.55;101211.03;5017223;28;20716;-66
2022/04/12 09:58:46;;;;;;;3.87;3.00;;;;;;;12.38;43.60;101200.47;5015250;28;20211;-66
2022/04/12 10:01:13;;;;;;;6.33;3.00;;;;;;;12.46;42.14;101197.69;5016009;28;20622;-65
2022/04/12 10:03:42;;;;;;;4.80;3.10;;;;;;;12.62;42.53;101198.16;5019458;28;20207;-65
2022/04/12 10:06:10;;;;;;;3.10;2.60;;;;;;;12.79;43.15;101195.97;5018478;28;20315;-64
2022/04/12 10:08:37;;;;;;;3.63;2.50;;;;;;;12.82;42.85;101192.41;5016579;28;20299;-66
2022/04/12 10:11:03;;;;;;;3.80;2.50;;;;;;;12.99;43.47;101190.19;5012387;28;20205;-65
2022/04/12 10:13:31;;;;;;;4.07;2.60;;;;;;;13.05;43.03;101194.41;5015725;28;20205;-66
2022/04/12 10:15:59;;;;;;;6.10;2.80;;;;;;;13.22;42.35;101183.47;5030715;22;20243;-72
2022/04/12 10:18:26;;;;;;;4.60;2.80;;;;;;;13.20;39.61;101185.28;5019452;28;20607;-72
2022/04/12 10:20:52;;;;;;;5.73;3.23;;;;;;;13.16;39.56;101173.19;5022240;28;20672;-72
2022/04/12 10:23:23;;;;;;;4.73;2.83;;;;;;;13.24;42.71;101166.81;5020708;28;20199;-73
2022/04/12 10:25:52;;;;;;;4.80;2.87;;;;;;;13.29;41.47;101173.69;5015885;28;20230;-73
2022/04/12 10:28:20;;;;;;;5.93;2.77;;;;;;;13.29;39.58;101171.06;5010408;28;20211;-72
2022/04/12 10:30:47;;;;;;;5.23;3.00;;;;;;;13.37;42.64;101164.72;5015921;28;20728;-72
2022/04/12 10:33:24;;;;;;;3.73;2.40;;;;;;;13.35;42.01;101158.69;5005273;28;20200;-72
2022/04/12 10:36:05;;;;;;;5.83;2.90;;;;;;;13.49;41.92;101153.03;5004340;28;20908;-72
2022/04/12 10:38:41;;;;;;;3.17;2.33;;;;;;;13.59;38.75;101167.56;4999841;28;20556;-73
2022/04/12 10:41:17;;;;;;;8.97;2.83;;;;;;;13.62;37.59;101157.00;5009459;28;20640;-73
2022/04/12 10:43:43;;;;;;;4.83;2.70;;;;;;;13.62;38.59;101162.22;5011514;28;20202;-73
2022/04/12 10:46:12;;;;;;;6.03;2.87;;;;;;;13.66;37.46;101152.53;5005108;28;20226;-73
2022/04/12 10:48:40;;;;;;;4.27;2.63;;;;;;;13.82;40.47;101153.78;5010944;28;20192;-72
2022/04/12 10:51:07;;;;;;;4.87;2.90;;;;;;;13.84;40.61;101137.97;5009901;28;20203;-72
2022/04/12 10:53:55;;;;;;;4.00;2.77;;;;;;;13.84;37.73;101132.72;5005727;28;20208;-71
2022/04/12 10:56:25;;;;;;;3.20;2.40;;;;;;;13.77;37.45;101144.31;5000919;28;20225;-72
2022/04/12 10:58:52;;;;;;;5.50;2.50;;;;;;;13.96;36.62;101134.13;5011707;28;20283;-73
2022/04/12 11:01:32;;;;;;;5.17;2.60;;;;;;;13.95;37.53;101133.28;5006134;28;20212;-72
2022/04/12 11:04:01;;;;;;;5.47;2.70;;;;;;;14.09;36.72;101131.94;5008798;28;20213;-72
2022/04/12 11:06:28;;;;;;;5.07;2.70;;;;;;;14.18;39.83;101121.19;5012767;28;20271;-72
2022/04/12 11:08:57;;;;;;;4.83;2.97;;;;;;;14.18;39.70;101121.19;5005155;28;20726;-73
2022/04/12 11:11:29;;;;;;;4.13;2.47;;;;;;;14.07;38.00;101123.28;5015540;28;20198;-72
2022/04/12 11:13:56;;;;;;;4.40;2.67;;;;;;;14.20;39.28;101121.97;5018932;28;20206;-73
2022/04/12 11:16:26;;;;;;;3.30;2.60;;;;;;;14.30;39.33;101125.13;5006871;28;20251;-72
2022/04/12 11:18:54;;;;;;;3.87;2.70;;;;;;;14.32;40.27;101118.09;4996522;28;20267;-73
2022/04/12 11:21:24;;;;;;;4.70;2.67;;;;;;;14.29;37.69;101116.41;4998663;28;20564;-73